Time;durP1;ratioP1;P1;durP2;ratioP2;P2;SDS_P1;SDS_P2;PMS_P1;PMS_P2;Temp;Humidity;BMP_temperature;BMP_pressure;BME280_temperature;BME280_humidity;BME280_pressure;Samples;Min_cycle;Max_cycle;Signal;HPM_P1;HPM_P2
2024/01/29 00:02:00;;;;;;;0.10;0.10;;;;;;;;;;5108743;28;20115;-79
2024/01/29 00:04:27;;;;;;;0.10;0.10;;;;;;;;;;5112705;28;20048;-79
2024/01/29 00:06:54;;;;;;;0.20;0.20;;;;;;;;;;5107826;28;20108;-79
2024/01/29 00:09:21;;;;;;;0.10;0.10;;;;;;;;;;5091337;28;20921;-79
2024/01/29 00:11:48;;;;;;;0.20;0.20;;;;;;;;;;5096069;28;20143;-79
2024/01/29 00:14:15;;;;;;;0.10;0.10;;;;;;;;;;5106363;28;20181;-79
2024/01/29 00:16:41;;;;;;;0.10;0.10;;;;;;;;;;5090532;28;20889;-79
2024/01/29 00:19:08;;;;;;;0.10;0.10;;;;;;;;;;5111368;27;20521;-79
2024/01/29 00:21:34;;;;;;;0.40;0.40;;;;;;;;;;5094257;28;20110;-79
2024/01/29 00:24:01;;;;;;;0.10;0.10;;;;;;;;;;5098316;28;20060;-79
2024/01/29 00:26:27;;;;;;;0.30;0.30;;;;;;;;;;5111490;28;20146;-79
2024/01/29 00:28:54;;;;;;;0.75;0.75;;;;;;;;;;5088285;28;20052;-79
2024/01/29 00:31:22;;;;;;;0.10;0.10;;;;;;;;;;5097721;28;20044;-79
2024/01/29 00:33:49;;;;;;;0.10;0.10;;;;;;;;;;5098687;27;20121;-79
2024/01/29 00:36:15;;;;;;;0.10;0.10;;;;;;;;;;5093357;28;20091;-79
2024/01/29 00:38:42;;;;;;;0.10;0.10;;;;;;;;;;5111994;28;20131;-79
2024/01/29 00:41:09;;;;;;;0.10;0.10;;;;;;;;;;5087352;27;20052;-79
2024/01/29 00:46:07;;;;;;;0.10;0.10;;;;;;;;;;5035777;28;20145;-76
2024/01/29 00:48:33;;;;;;;0.10;0.10;;;;;;;;;;5043773;28;20056;-74
2024/01/29 00:51:01;;;;;;;0.10;0.10;;;;;;;;;;5049401;28;20057;-75
2024/01/29 00:53:27;;;;;;;0.10;0.10;;;;;;;;;;5046348;28;20133;-76
2024/01/29 00:55:54;;;;;;;2.67;1.38;;;;;;;;;;5047449;28;20088;-74
2024/01/29 00:58:20;;;;;;;0.10;0.10;;;;;;;;;;5046582;28;21016;-74
2024/01/29 01:00:48;;;;;;;0.10;0.10;;;;;;;;;;5034277;28;20093;-75
2024/01/29 01:03:14;;;;;;;0.10;0.10;;;;;;;;;;5046525;28;20452;-74
2024/01/29 01:05:41;;;;;;;0.10;0.10;;;;;;;;;;5030742;28;20049;-75
2024/01/29 01:08:07;;;;;;;0.10;0.10;;;;;;;;;;5057093;28;20486;-74
2024/01/29 01:10:33;;;;;;;0.65;0.65;;;;;;;;;;5049501;28;20049;-76
2024/01/29 01:13:00;;;;;;;1.42;1.35;;;;;;;;;;5049664;28;20057;-76
2024/01/29 01:15:26;;;;;;;0.43;0.43;;;;;;;;;;5050835;28;20127;-75
2024/01/29 01:17:53;;;;;;;0.10;0.10;;;;;;;;;;5049352;28;20282;-76
2024/01/29 01:20:20;;;;;;;0.10;0.10;;;;;;;;;;5048974;28;20057;-75
2024/01/29 01:22:46;;;;;;;0.20;0.20;;;;;;;;;;5047031;28;20073;-75
2024/01/29 01:25:13;;;;;;;0.28;0.28;;;;;;;;;;5051396;28;20054;-75
2024/01/29 01:27:39;;;;;;;0.73;0.73;;;;;;;;;;5047316;28;20060;-76
2024/01/29 01:30:06;;;;;;;0.10;0.10;;;;;;;;;;5048228;28;20128;-73
2024/01/29 01:32:33;;;;;;;0.10;0.10;;;;;;;;;;5047310;28;20862;-76
2024/01/29 01:34:59;;;;;;;0.20;0.20;;;;;;;;;;5050908;28;20050;-75
2024/01/29 01:37:26;;;;;;;0.10;0.10;;;;;;;;;;5047881;28;20053;-76
2024/01/29 01:39:52;;;;;;;0.47;0.47;;;;;;;;;;5049865;28;20061;-75
2024/01/29 01:42:19;;;;;;;0.10;0.10;;;;;;;;;;5050435;28;20137;-75
2024/01/29 01:44:46;;;;;;;0.85;0.85;;;;;;;;;;5050088;28;20045;-76
2024/01/29 01:47:13;;;;;;;0.10;0.10;;;;;;;;;;5050163;28;20131;-76
2024/01/29 01:49:40;;;;;;;0.10;0.10;;;;;;;;;;5049486;28;20605;-75
2024/01/29 01:52:06;;;;;;;0.10;0.10;;;;;;;;;;5032387;28;20057;-76
2024/01/29 01:54:33;;;;;;;0.10;0.10;;;;;;;;;;5049492;28;20058;-76
2024/01/29 01:57:00;;;;;;;0.10;0.10;;;;;;;;;;5032309;28;20080;-74
2024/01/29 01:59:27;;;;;;;0.10;0.10;;;;;;;;;;5049556;28;20172;-76
2024/01/29 02:01:54;;;;;;;0.10;0.10;;;;;;;;;;5045882;28;20081;-76
2024/01/29 02:04:21;;;;;;;0.10;0.10;;;;;;;;;;5049959;28;20053;-76
2024/01/29 02:06:48;;;;;;;0.10;0.10;;;;;;;;;;5050569;28;20053;-76
2024/01/29 02:09:15;;;;;;;0.10;0.10;;;;;;;;;;5048555;28;20049;-76
2024/01/29 02:11:41;;;;;;;0.30;0.30;;;;;;;;;;5049345;28;20057;-76
2024/01/29 02:14:07;;;;;;;0.10;0.10;;;;;;;;;;5035376;28;20084;-76
2024/01/29 02:16:34;;;;;;;0.10;0.10;;;;;;;;;;5053160;28;20050;-76
2024/01/29 02:19:03;;;;;;;0.10;0.10;;;;;;;;;;5049030;28;20054;-73
2024/01/29 02:21:29;;;;;;;0.10;0.10;;;;;;;;;;5040919;28;20054;-75
2024/01/29 02:23:56;;;;;;;0.10;0.10;;;;;;;;;;5042291;28;20049;-76
2024/01/29 02:26:22;;;;;;;1.98;1.35;;;;;;;;;;5049655;28;20061;-76
2024/01/29 02:28:48;;;;;;;0.10;0.10;;;;;;;;;;5031101;28;20068;-76
2024/01/29 02:31:15;;;;;;;0.10;0.10;;;;;;;;;;5049644;28;20126;-76
2024/01/29 02:33:41;;;;;;;0.85;0.85;;;;;;;;;;5048914;28;20061;-76
2024/01/29 02:36:08;;;;;;;0.17;0.17;;;;;;;;;;5033243;28;20192;-74
2024/01/29 02:38:34;;;;;;;0.10;0.10;;;;;;;;;;5048306;28;20560;-76
2024/01/29 02:41:00;;;;;;;0.10;0.10;;;;;;;;;;5048766;28;23652;-76
2024/01/29 02:43:27;;;;;;;0.10;0.10;;;;;;;;;;5047801;28;20050;-75
2024/01/29 02:45:53;;;;;;;0.10;0.10;;;;;;;;;;5049208;28;20053;-76
2024/01/29 02:48:20;;;;;;;0.10;0.10;;;;;;;;;;5050282;28;20081;-76
2024/01/29 02:50:48;;;;;;;0.10;0.10;;;;;;;;;;5047834;28;20543;-74
2024/01/29 02:53:14;;;;;;;0.10;0.10;;;;;;;;;;5049364;28;20511;-76
2024/01/29 02:55:41;;;;;;;0.10;0.10;;;;;;;;;;5049345;28;20053;-76
2024/01/29 02:58:07;;;;;;;0.10;0.10;;;;;;;;;;5041732;28;20061;-73
2024/01/29 03:00:34;;;;;;;0.10;0.10;;;;;;;;;;5048291;28;20068;-75
2024/01/29 03:03:00;;;;;;;0.10;0.10;;;;;;;;;;5049107;28;20434;-76
2024/01/29 03:05:27;;;;;;;0.10;0.10;;;;;;;;;;5051788;28;20511;-76
2024/01/29 03:07:53;;;;;;;0.10;0.10;;;;;;;;;;5046747;28;20058;-76
2024/01/29 03:10:20;;;;;;;0.10;0.10;;;;;;;;;;5047161;28;20057;-76
2024/01/29 03:12:46;;;;;;;0.10;0.10;;;;;;;;;;5047325;28;20057;-75
2024/01/29 03:15:13;;;;;;;0.80;0.80;;;;;;;;;;5048340;28;20550;-75
2024/01/29 03:17:39;;;;;;;0.10;0.10;;;;;;;;;;5046293;28;20077;-76
2024/01/29 03:20:06;;;;;;;0.10;0.10;;;;;;;;;;5046301;28;20129;-75
2024/01/29 03:22:32;;;;;;;0.10;0.10;;;;;;;;;;5030490;28;20914;-76
2024/01/29 03:24:59;;;;;;;0.17;0.17;;;;;;;;;;5046620;28;20116;-74
2024/01/29 03:27:25;;;;;;;0.10;0.10;;;;;;;;;;5045918;28;20061;-76
2024/01/29 03:29:52;;;;;;;0.10;0.10;;;;;;;;;;5048343;28;20543;-75
2024/01/29 03:32:18;;;;;;;0.10;0.10;;;;;;;;;;5047915;28;20128;-76
2024/01/29 03:34:45;;;;;;;0.10;0.10;;;;;;;;;;5049170;28;20056;-76
2024/01/29 03:37:11;;;;;;;0.10;0.10;;;;;;;;;;5045959;28;20057;-76
2024/01/29 03:39:38;;;;;;;0.10;0.10;;;;;;;;;;5047648;28;20115;-76
2024/01/29 03:42:05;;;;;;;0.10;0.10;;;;;;;;;;5027953;28;20073;-76
2024/01/29 03:44:32;;;;;;;0.10;0.10;;;;;;;;;;5029405;28;20939;-76
2024/01/29 03:46:58;;;;;;;0.55;0.55;;;;;;;;;;5046929;28;20597;-74
2024/01/29 03:49:24;;;;;;;0.17;0.17;;;;;;;;;;5045466;28;20050;-76
2024/01/29 03:51:51;;;;;;;0.10;0.10;;;;;;;;;;5027200;28;20107;-76
2024/01/29 03:54:17;;;;;;;0.10;0.10;;;;;;;;;;5045951;28;20068;-76
2024/01/29 03:56:44;;;;;;;0.10;0.10;;;;;;;;;;5048537;28;20108;-76
2024/01/29 03:59:11;;;;;;;0.10;0.10;;;;;;;;;;5045636;28;20136;-76
2024/01/29 04:01:38;;;;;;;0.10;0.10;;;;;;;;;;5026561;28;20097;-76
2024/01/29 04:04:09;;;;;;;0.13;0.13;;;;;;;;;;5045247;28;20056;-76
2024/01/29 04:06:37;;;;;;;0.10;0.10;;;;;;;;;;5043456;28;20053;-76
2024/01/29 04:09:04;;;;;;;0.80;0.80;;;;;;;;;;5041599;28;20081;-76
2024/01/29 04:11:30;;;;;;;0.17;0.17;;;;;;;;;;5028400;28;20084;-76
2024/01/29 04:13:57;;;;;;;0.10;0.10;;;;;;;;;;5046669;28;20136;-76
2024/01/29 04:16:24;;;;;;;0.68;0.68;;;;;;;;;;5048355;28;20052;-76
2024/01/29 04:18:50;;;;;;;0.10;0.10;;;;;;;;;;5046580;28;20058;-76
2024/01/29 04:21:18;;;;;;;0.10;0.10;;;;;;;;;;5046921;28;20049;-76
2024/01/29 04:23:44;;;;;;;0.10;0.10;;;;;;;;;;5037555;28;20152;-76
2024/01/29 04:26:10;;;;;;;0.10;0.10;;;;;;;;;;5043499;28;20054;-73
2024/01/29 04:28:37;;;;;;;0.10;0.10;;;;;;;;;;5047471;28;20053;-74
2024/01/29 04:31:04;;;;;;;0.75;0.75;;;;;;;;;;5047168;28;20057;-76
2024/01/29 04:33:35;;;;;;;0.28;0.28;;;;;;;;;;5045615;28;20060;-74
2024/01/29 04:36:02;;;;;;;0.52;0.52;;;;;;;;;;5044941;28;21213;-75
2024/01/29 04:38:29;;;;;;;0.28;0.28;;;;;;;;;;5045170;28;20057;-76
2024/01/29 04:40:55;;;;;;;0.10;0.10;;;;;;;;;;5045916;28;20049;-74
2024/01/29 04:43:22;;;;;;;0.10;0.10;;;;;;;;;;5035914;28;20141;-75
2024/01/29 04:45:48;;;;;;;0.10;0.10;;;;;;;;;;5045417;28;20103;-76
2024/01/29 04:48:15;;;;;;;0.10;0.10;;;;;;;;;;5047308;28;20049;-76
2024/01/29 04:50:41;;;;;;;0.10;0.10;;;;;;;;;;5044075;28;20060;-76
2024/01/29 04:53:08;;;;;;;0.10;0.10;;;;;;;;;;5047477;28;20057;-75
2024/01/29 04:55:34;;;;;;;0.10;0.10;;;;;;;;;;5045976;28;20052;-75
2024/01/29 04:58:00;;;;;;;0.10;0.10;;;;;;;;;;5047233;28;20053;-75
2024/01/29 05:00:27;;;;;;;0.10;0.10;;;;;;;;;;5047893;28;20054;-76
2024/01/29 05:02:53;;;;;;;0.10;0.10;;;;;;;;;;5047210;28;20080;-76
2024/01/29 05:05:20;;;;;;;0.10;0.10;;;;;;;;;;5045831;28;20053;-76
2024/01/29 05:07:46;;;;;;;0.10;0.10;;;;;;;;;;5046641;28;20229;-76
2024/01/29 05:10:13;;;;;;;0.10;0.10;;;;;;;;;;5046733;28;20084;-76
2024/01/29 05:12:39;;;;;;;0.10;0.10;;;;;;;;;;5047250;28;20057;-76
2024/01/29 05:15:06;;;;;;;0.10;0.10;;;;;;;;;;5029178;28;20538;-76
2024/01/29 05:17:32;;;;;;;0.10;0.10;;;;;;;;;;5047238;28;20058;-77
2024/01/29 05:19:59;;;;;;;0.13;0.13;;;;;;;;;;5046720;28;20522;-76
2024/01/29 05:22:25;;;;;;;0.10;0.10;;;;;;;;;;5052673;28;20669;-76
2024/01/29 05:24:52;;;;;;;0.10;0.10;;;;;;;;;;5043947;28;20107;-74
2024/01/29 05:27:18;;;;;;;0.10;0.10;;;;;;;;;;5044552;28;20049;-76
2024/01/29 05:29:45;;;;;;;0.10;0.10;;;;;;;;;;5046105;28;20100;-76
2024/01/29 05:32:11;;;;;;;0.10;0.10;;;;;;;;;;5029309;28;20060;-76
2024/01/29 05:34:37;;;;;;;0.10;0.10;;;;;;;;;;5046236;28;20054;-77
2024/01/29 05:37:04;;;;;;;0.10;0.10;;;;;;;;;;5046738;28;20204;-76
2024/01/29 05:39:31;;;;;;;0.10;0.10;;;;;;;;;;5048227;28;20064;-76
2024/01/29 05:41:57;;;;;;;1.35;1.20;;;;;;;;;;5046098;28;20132;-76
2024/01/29 05:44:24;;;;;;;0.10;0.10;;;;;;;;;;5046766;28;20061;-76
2024/01/29 05:46:50;;;;;;;0.10;0.10;;;;;;;;;;5044467;28;20058;-77
2024/01/29 05:49:18;;;;;;;0.10;0.10;;;;;;;;;;5043170;28;20057;-76
2024/01/29 05:51:47;;;;;;;0.13;0.13;;;;;;;;;;5045367;28;20563;-76
2024/01/29 05:54:13;;;;;;;0.10;0.10;;;;;;;;;;5030345;28;20551;-77
2024/01/29 05:56:45;;;;;;;0.10;0.10;;;;;;;;;;5049543;28;20057;-74
2024/01/29 05:59:14;;;;;;;0.10;0.10;;;;;;;;;;5048083;28;20058;-77
2024/01/29 06:01:41;;;;;;;0.10;0.10;;;;;;;;;;5046329;28;20053;-76
2024/01/29 06:04:08;;;;;;;0.10;0.10;;;;;;;;;;5048075;28;20059;-74
2024/01/29 06:06:37;;;;;;;0.10;0.10;;;;;;;;;;5049804;28;20419;-76
2024/01/29 06:09:09;;;;;;;0.38;0.38;;;;;;;;;;5047474;28;20057;-77
2024/01/29 06:11:36;;;;;;;0.10;0.10;;;;;;;;;;5031137;28;20060;-76
2024/01/29 06:14:02;;;;;;;0.10;0.10;;;;;;;;;;5050790;28;20535;-76
2024/01/29 06:16:29;;;;;;;0.20;0.20;;;;;;;;;;5049544;28;20500;-76
2024/01/29 06:18:55;;;;;;;0.70;0.70;;;;;;;;;;5049431;28;20049;-73
2024/01/29 06:21:22;;;;;;;0.10;0.10;;;;;;;;;;5048850;28;20504;-76
2024/01/29 06:23:48;;;;;;;0.10;0.10;;;;;;;;;;5030099;28;20050;-76
2024/01/29 06:26:15;;;;;;;0.10;0.10;;;;;;;;;;5049963;28;20148;-76
2024/01/29 06:28:41;;;;;;;0.10;0.10;;;;;;;;;;5048889;28;20646;-76
2024/01/29 06:31:08;;;;;;;0.73;0.73;;;;;;;;;;5049325;28;20104;-73
2024/01/29 06:33:39;;;;;;;0.10;0.10;;;;;;;;;;5048891;28;20056;-76
2024/01/29 06:36:06;;;;;;;0.10;0.10;;;;;;;;;;5049727;28;20049;-76
2024/01/29 06:38:32;;;;;;;0.10;0.10;;;;;;;;;;5049745;28;20060;-75
2024/01/29 06:40:58;;;;;;;0.10;0.10;;;;;;;;;;5047557;28;20135;-75
2024/01/29 06:43:26;;;;;;;0.10;0.10;;;;;;;;;;5031163;28;20103;-75
2024/01/29 06:45:54;;;;;;;0.10;0.10;;;;;;;;;;5115784;22;20517;-78
2024/01/29 06:48:21;;;;;;;0.10;0.10;;;;;;;;;;5050097;28;20116;-78
2024/01/29 06:50:47;;;;;;;0.10;0.10;;;;;;;;;;5041526;28;20049;-78
2024/01/29 06:53:14;;;;;;;0.10;0.10;;;;;;;;;;5037976;28;20049;-78
2024/01/29 06:55:41;;;;;;;1.40;1.38;;;;;;;;;;5045356;28;20053;-78
2024/01/29 06:58:07;;;;;;;0.10;0.10;;;;;;;;;;5059239;28;20066;-78
2024/01/29 07:00:34;;;;;;;0.20;0.20;;;;;;;;;;5058574;28;20046;-78
2024/01/29 07:03:01;;;;;;;0.10;0.10;;;;;;;;;;5058664;28;20061;-78
2024/01/29 07:05:30;;;;;;;0.10;0.10;;;;;;;;;;5046652;28;20050;-78
2024/01/29 07:07:57;;;;;;;0.10;0.10;;;;;;;;;;5057721;28;20049;-78
2024/01/29 07:10:26;;;;;;;0.10;0.10;;;;;;;;;;5058492;28;20062;-79
2024/01/29 07:12:52;;;;;;;0.10;0.10;;;;;;;;;;5050432;28;20088;-79
2024/01/29 07:15:19;;;;;;;0.10;0.10;;;;;;;;;;5047730;28;20503;-79
2024/01/29 07:17:46;;;;;;;0.10;0.10;;;;;;;;;;5046699;28;20072;-79
2024/01/29 07:20:12;;;;;;;0.10;0.10;;;;;;;;;;5040797;28;20660;-79
2024/01/29 07:22:39;;;;;;;0.10;0.10;;;;;;;;;;5041246;28;20048;-78
2024/01/29 07:25:06;;;;;;;1.02;1.02;;;;;;;;;;5034874;28;20058;-79
2024/01/29 07:27:32;;;;;;;12.50;3.60;;;;;;;;;;5034154;28;20061;-79
2024/01/29 07:29:59;;;;;;;0.10;0.10;;;;;;;;;;5035272;28;20140;-80
2024/01/29 07:32:31;;;;;;;0.10;0.10;;;;;;;;;;5035375;28;20056;-80
2024/01/29 07:35:00;;;;;;;0.10;0.10;;;;;;;;;;5030216;28;20088;-80
2024/01/29 07:37:30;;;;;;;0.10;0.10;;;;;;;;;;5035038;28;20053;-81
2024/01/29 07:39:56;;;;;;;0.10;0.10;;;;;;;;;;5034976;28;20542;-80
2024/01/29 07:42:23;;;;;;;0.10;0.10;;;;;;;;;;5035709;28;20063;-78
2024/01/29 07:44:50;;;;;;;0.10;0.10;;;;;;;;;;5035026;28;20049;-81
2024/01/29 07:47:17;;;;;;;0.10;0.10;;;;;;;;;;5054024;28;20049;-79
2024/01/29 07:49:45;;;;;;;0.10;0.10;;;;;;;;;;5053621;28;20212;-81
2024/01/29 07:52:12;;;;;;;0.10;0.10;;;;;;;;;;5037307;28;20060;-81
2024/01/29 07:54:38;;;;;;;0.10;0.10;;;;;;;;;;5035110;28;20053;-80
2024/01/29 07:57:05;;;;;;;0.20;0.20;;;;;;;;;;5036807;28;20873;-79
2024/01/29 07:59:31;;;;;;;0.10;0.10;;;;;;;;;;5061726;28;20064;-79
2024/01/29 08:01:58;;;;;;;0.10;0.10;;;;;;;;;;5034005;28;20981;-79
2024/01/29 08:04:24;;;;;;;0.10;0.10;;;;;;;;;;5052713;28;20116;-81
2024/01/29 08:06:51;;;;;;;0.10;0.10;;;;;;;;;;5034042;28;20057;-81
2024/01/29 08:09:18;;;;;;;0.10;0.10;;;;;;;;;;5034362;28;20138;-81
2024/01/29 08:11:45;;;;;;;0.10;0.10;;;;;;;;;;5039076;28;20147;-80
2024/01/29 08:14:11;;;;;;;0.10;0.10;;;;;;;;;;5034467;28;20073;-81
2024/01/29 08:16:38;;;;;;;0.32;0.32;;;;;;;;;;5035012;28;20057;-81
2024/01/29 08:19:05;;;;;;;0.10;0.10;;;;;;;;;;5034809;28;20054;-81
2024/01/29 08:21:32;;;;;;;0.10;0.10;;;;;;;;;;5052066;28;20119;-81
2024/01/29 08:23:58;;;;;;;0.10;0.10;;;;;;;;;;5035190;28;20062;-80
2024/01/29 08:26:25;;;;;;;0.10;0.10;;;;;;;;;;5035587;28;20872;-80
2024/01/29 08:28:55;;;;;;;0.10;0.10;;;;;;;;;;5040164;28;20049;-79
2024/01/29 08:31:21;;;;;;;0.10;0.10;;;;;;;;;;5036794;28;20431;-81
2024/01/29 08:33:48;;;;;;;0.10;0.10;;;;;;;;;;5036571;28;20049;-81
2024/01/29 08:36:15;;;;;;;0.10;0.10;;;;;;;;;;5033225;28;20148;-80
2024/01/29 08:38:42;;;;;;;0.10;0.10;;;;;;;;;;5046061;28;20873;-80
2024/01/29 08:41:09;;;;;;;0.10;0.10;;;;;;;;;;5032750;28;20057;-80
2024/01/29 08:43:35;;;;;;;0.10;0.10;;;;;;;;;;5034137;28;20050;-80
2024/01/29 08:46:02;;;;;;;0.10;0.10;;;;;;;;;;5034336;28;20092;-78
2024/01/29 08:48:28;;;;;;;0.10;0.10;;;;;;;;;;5034421;28;20049;-81
2024/01/29 08:50:55;;;;;;;1.48;1.38;;;;;;;;;;5033682;28;20057;-79
2024/01/29 08:53:21;;;;;;;0.10;0.10;;;;;;;;;;5053351;28;20439;-80
2024/01/29 08:55:48;;;;;;;0.20;0.20;;;;;;;;;;5029573;28;20847;-80
2024/01/29 08:58:15;;;;;;;0.10;0.10;;;;;;;;;;5036807;28;20064;-79
2024/01/29 09:00:41;;;;;;;0.10;0.10;;;;;;;;;;5037274;28;20057;-79
2024/01/29 09:03:09;;;;;;;0.10;0.10;;;;;;;;;;5038152;28;20064;-79
2024/01/29 09:05:38;;;;;;;0.10;0.10;;;;;;;;;;5037700;28;20053;-79
2024/01/29 09:08:05;;;;;;;0.10;0.10;;;;;;;;;;5037364;28;20119;-80
2024/01/29 09:10:43;;;;;;;0.10;0.10;;;;;;;;;;5037504;28;20057;-78
2024/01/29 09:13:12;;;;;;;0.10;0.10;;;;;;;;;;5039390;28;20568;-80
2024/01/29 09:15:38;;;;;;;0.10;0.10;;;;;;;;;;5038099;28;20271;-79
2024/01/29 09:18:05;;;;;;;0.10;0.10;;;;;;;;;;5045345;28;20839;-80
2024/01/29 09:20:31;;;;;;;0.10;0.10;;;;;;;;;;5059810;28;20045;-80
2024/01/29 09:22:58;;;;;;;0.10;0.10;;;;;;;;;;5032765;28;20053;-80
2024/01/29 09:25:25;;;;;;;0.10;0.10;;;;;;;;;;5049173;28;20049;-78
2024/01/29 09:27:51;;;;;;;0.10;0.10;;;;;;;;;;5036700;28;20978;-80
2024/01/29 09:30:18;;;;;;;0.10;0.10;;;;;;;;;;5036251;28;20053;-80
2024/01/29 09:32:44;;;;;;;0.10;0.10;;;;;;;;;;5054444;28;20049;-79
2024/01/29 09:35:11;;;;;;;0.10;0.10;;;;;;;;;;5040486;28;20065;-80
2024/01/29 09:37:39;;;;;;;0.10;0.10;;;;;;;;;;5062737;28;20140;-79
2024/01/29 09:40:10;;;;;;;0.10;0.10;;;;;;;;;;5036933;28;20054;-81
2024/01/29 09:42:39;;;;;;;0.10;0.10;;;;;;;;;;5039275;28;20792;-81
2024/01/29 09:45:08;;;;;;;0.10;0.10;;;;;;;;;;5040339;28;20049;-81
2024/01/29 09:47:35;;;;;;;0.20;0.20;;;;;;;;;;5040878;28;20053;-80
2024/01/29 09:50:02;;;;;;;0.10;0.10;;;;;;;;;;5040595;28;20064;-81
2024/01/29 09:52:28;;;;;;;0.30;0.30;;;;;;;;;;5039325;28;20089;-81
2024/01/29 09:54:56;;;;;;;0.10;0.10;;;;;;;;;;5057768;28;20053;-80
2024/01/29 09:57:28;;;;;;;0.10;0.10;;;;;;;;;;5039623;28;20061;-80
2024/01/29 09:59:55;;;;;;;0.85;0.85;;;;;;;;;;5040056;28;20045;-81
2024/01/29 10:02:21;;;;;;;0.10;0.10;;;;;;;;;;5058416;28;20080;-81
2024/01/29 10:04:48;;;;;;;0.32;0.25;;;;;;;;;;5038402;28;20835;-80
2024/01/29 10:07:14;;;;;;;0.10;0.10;;;;;;;;;;5034206;28;21295;-80
2024/01/29 10:09:41;;;;;;;0.10;0.10;;;;;;;;;;5051411;28;20085;-81
2024/01/29 10:12:07;;;;;;;0.10;0.10;;;;;;;;;;5040036;28;20053;-80
2024/01/29 10:14:34;;;;;;;0.20;0.20;;;;;;;;;;5038511;28;20049;-81
2024/01/29 10:17:00;;;;;;;0.10;0.10;;;;;;;;;;5039422;28;20053;-81
2024/01/29 10:19:37;;;;;;;0.10;0.10;;;;;;;;;;5040321;28;20064;-80
2024/01/29 10:22:09;;;;;;;0.57;0.57;;;;;;;;;;5039278;28;20048;-79
2024/01/29 10:24:37;;;;;;;0.20;0.20;;;;;;;;;;5039934;28;20088;-81
2024/01/29 10:27:08;;;;;;;0.10;0.10;;;;;;;;;;5038573;28;20132;-80
2024/01/29 10:29:45;;;;;;;0.10;0.10;;;;;;;;;;5036415;28;20103;-80
2024/01/29 10:32:11;;;;;;;0.20;0.20;;;;;;;;;;5036866;28;20596;-80
2024/01/29 10:34:40;;;;;;;0.20;0.20;;;;;;;;;;5039484;28;20139;-80
2024/01/29 10:37:07;;;;;;;0.10;0.10;;;;;;;;;;5041863;28;20054;-79
2024/01/29 10:39:35;;;;;;;4.80;1.10;;;;;;;;;;5047458;28;20068;-80
2024/01/29 10:42:14;;;;;;;0.10;0.10;;;;;;;;;;5044496;28;20069;-80
2024/01/29 10:44:41;;;;;;;0.17;0.17;;;;;;;;;;5043883;28;20088;-80
2024/01/29 10:47:28;;;;;;;0.10;0.10;;;;;;;;;;5045459;28;20076;-80
2024/01/29 10:49:58;;;;;;;0.70;0.70;;;;;;;;;;5062952;28;20053;-80
2024/01/29 10:52:26;;;;;;;0.63;0.63;;;;;;;;;;5041395;28;20041;-81
2024/01/29 10:54:55;;;;;;;0.10;0.10;;;;;;;;;;5048404;28;20053;-81
2024/01/29 10:57:22;;;;;;;0.45;0.45;;;;;;;;;;5065942;28;20053;-81
2024/01/29 10:59:48;;;;;;;0.10;0.10;;;;;;;;;;5045322;28;20055;-80
2024/01/29 11:02:15;;;;;;;0.10;0.10;;;;;;;;;;5042459;28;20097;-81
2024/01/29 11:04:42;;;;;;;0.38;0.38;;;;;;;;;;5038024;28;20070;-81
2024/01/29 11:07:20;;;;;;;0.30;0.30;;;;;;;;;;5040153;28;20504;-81
2024/01/29 11:09:59;;;;;;;0.10;0.10;;;;;;;;;;5040307;28;20060;-80
2024/01/29 11:12:26;;;;;;;0.10;0.10;;;;;;;;;;5036180;28;20898;-79
2024/01/29 11:14:59;;;;;;;0.40;0.40;;;;;;;;;;5038997;28;20102;-80
2024/01/29 11:17:27;;;;;;;0.77;0.73;;;;;;;;;;5057362;28;20056;-80
2024/01/29 11:19:58;;;;;;;0.10;0.10;;;;;;;;;;5039843;28;20049;-79
2024/01/29 11:22:33;;;;;;;0.20;0.20;;;;;;;;;;5055570;28;20056;-80
2024/01/29 11:25:04;;;;;;;0.20;0.20;;;;;;;;;;5040863;28;20060;-80
2024/01/29 11:27:30;;;;;;;;;;;;;;;;;;5040413;28;20216;-81
2024/01/29 11:29:57;;;;;;;0.45;0.45;;;;;;;;;;5040630;28;42477;-81
2024/01/29 11:32:30;;;;;;;1.23;1.13;;;;;;;;;;5058043;28;20041;-80
2024/01/29 11:35:07;;;;;;;3.85;0.75;;;;;;;;;;5043531;28;20057;-80
2024/01/29 11:37:33;;;;;;;0.20;0.20;;;;;;;;;;5043663;28;20873;-81
2024/01/29 11:39:59;;;;;;;0.10;0.10;;;;;;;;;;5043423;28;21347;-80
2024/01/29 11:42:29;;;;;;;0.10;0.10;;;;;;;;;;5046484;28;20041;-81
2024/01/29 11:44:56;;;;;;;0.10;0.10;;;;;;;;;;5066156;28;20076;-81
2024/01/29 11:47:24;;;;;;;0.10;0.10;;;;;;;;;;5046555;28;20037;-81
2024/01/29 11:49:51;;;;;;;0.47;0.43;;;;;;;;;;5046407;28;20076;-81
2024/01/29 11:52:17;;;;;;;0.40;0.40;;;;;;;;;;5047647;28;20057;-80
2024/01/29 11:54:44;;;;;;;0.10;0.10;;;;;;;;;;5052343;28;20141;-81
2024/01/29 11:57:10;;;;;;;0.32;0.32;;;;;;;;;;5042111;28;20049;-81
2024/01/29 11:59:46;;;;;;;0.10;0.10;;;;;;;;;;5062108;28;20093;-81
2024/01/29 12:02:12;;;;;;;0.10;0.10;;;;;;;;;;5047329;28;20052;-81
2024/01/29 12:04:39;;;;;;;0.45;0.45;;;;;;;;;;5045367;28;20053;-80
2024/01/29 12:07:05;;;;;;;0.10;0.10;;;;;;;;;;5046811;28;20061;-80
2024/01/29 12:09:36;;;;;;;0.10;0.10;;;;;;;;;;5050143;28;20053;-81
2024/01/29 12:12:06;;;;;;;0.10;0.10;;;;;;;;;;5072074;28;20061;-81
2024/01/29 12:14:33;;;;;;;0.32;0.32;;;;;;;;;;5048535;28;20053;-81
2024/01/29 12:16:59;;;;;;;1.85;1.60;;;;;;;;;;5041760;28;20121;-80
2024/01/29 12:19:26;;;;;;;0.98;0.40;;;;;;;;;;5045773;28;20091;-81
2024/01/29 12:21:54;;;;;;;1.75;0.85;;;;;;;;;;5054555;28;20049;-79
2024/01/29 12:24:22;;;;;;;0.65;0.60;;;;;;;;;;5039592;28;20049;-80
2024/01/29 12:26:48;;;;;;;0.10;0.10;;;;;;;;;;5039081;28;20072;-80
2024/01/29 12:29:15;;;;;;;0.13;0.13;;;;;;;;;;5049927;28;20057;-80
2024/01/29 12:31:42;;;;;;;0.10;0.10;;;;;;;;;;5038713;28;20057;-80
2024/01/29 12:34:17;;;;;;;1.10;1.10;;;;;;;;;;5044470;28;20101;-80
2024/01/29 12:36:49;;;;;;;0.35;0.35;;;;;;;;;;5046088;28;20045;-81
2024/01/29 12:39:16;;;;;;;1.55;1.00;;;;;;;;;;5048263;28;20086;-80
2024/01/29 12:41:42;;;;;;;7.68;1.00;;;;;;;;;;5043553;28;20045;-81
2024/01/29 12:44:12;;;;;;;0.10;0.10;;;;;;;;;;5039798;28;20049;-81
2024/01/29 12:46:39;;;;;;;0.10;0.10;;;;;;;;;;5045379;28;20077;-80
2024/01/29 12:49:05;;;;;;;0.30;0.30;;;;;;;;;;5045174;28;20045;-81
2024/01/29 12:51:32;;;;;;;0.30;0.30;;;;;;;;;;5044813;28;20057;-81
2024/01/29 12:53:59;;;;;;;0.20;0.20;;;;;;;;;;5060767;28;20038;-79
2024/01/29 12:56:27;;;;;;;0.10;0.10;;;;;;;;;;5041656;28;20049;-81
2024/01/29 12:58:54;;;;;;;0.20;0.20;;;;;;;;;;5042453;28;20061;-80
2024/01/29 13:01:21;;;;;;;0.10;0.10;;;;;;;;;;5063832;28;20128;-80
2024/01/29 13:03:47;;;;;;;0.10;0.10;;;;;;;;;;5044732;28;20064;-80
2024/01/29 13:06:14;;;;;;;0.20;0.20;;;;;;;;;;5103109;22;20856;-78
2024/01/29 13:08:41;;;;;;;4.10;2.67;;;;;;;;;;5026264;28;20537;-78
2024/01/29 13:11:07;;;;;;;0.52;0.52;;;;;;;;;;5024104;28;20905;-78
2024/01/29 13:13:34;;;;;;;0.75;0.75;;;;;;;;;;5026494;28;20104;-78
2024/01/29 13:16:00;;;;;;;0.43;0.40;;;;;;;;;;5024007;28;20843;-78
2024/01/29 13:18:27;;;;;;;0.43;0.30;;;;;;;;;;5028095;28;20053;-78
2024/01/29 13:20:53;;;;;;;0.25;0.25;;;;;;;;;;5026480;28;20140;-78
2024/01/29 13:23:20;;;;;;;0.15;0.15;;;;;;;;;;5024857;28;20618;-78
2024/01/29 13:25:47;;;;;;;3.15;1.10;;;;;;;;;;5026826;28;20162;-78
2024/01/29 13:28:14;;;;;;;0.20;0.20;;;;;;;;;;5023613;28;20587;-78
2024/01/29 13:30:40;;;;;;;0.30;0.30;;;;;;;;;;5024518;28;20048;-78
2024/01/29 13:33:07;;;;;;;0.20;0.20;;;;;;;;;;5029168;28;20454;-78
2024/01/29 13:35:33;;;;;;;0.45;0.43;;;;;;;;;;5028105;28;20979;-78
2024/01/29 13:38:00;;;;;;;0.90;0.57;;;;;;;;;;5028331;28;20551;-78
2024/01/29 13:40:26;;;;;;;0.30;0.30;;;;;;;;;;5029336;28;20054;-78
2024/01/29 13:42:54;;;;;;;0.20;0.20;;;;;;;;;;5027762;28;20471;-78
2024/01/29 13:45:21;;;;;;;0.85;0.85;;;;;;;;;;5026871;28;20137;-78
2024/01/29 13:47:49;;;;;;;0.20;0.20;;;;;;;;;;5027120;28;20061;-79
2024/01/29 13:50:16;;;;;;;0.20;0.20;;;;;;;;;;5008259;28;20057;-78
2024/01/29 13:52:42;;;;;;;0.52;0.50;;;;;;;;;;5028286;28;20053;-77
2024/01/29 13:55:09;;;;;;;0.57;0.57;;;;;;;;;;5027224;28;20504;-78
2024/01/29 13:57:35;;;;;;;0.10;0.10;;;;;;;;;;5026755;28;20058;-77
2024/01/29 14:00:03;;;;;;;0.15;0.15;;;;;;;;;;5024722;28;20914;-78
2024/01/29 14:02:34;;;;;;;0.65;0.30;;;;;;;;;;5024587;28;20063;-78
2024/01/29 14:05:02;;;;;;;0.45;0.32;;;;;;;;;;5008801;28;20060;-78
2024/01/29 14:07:29;;;;;;;0.10;0.10;;;;;;;;;;5025268;28;20532;-78
2024/01/29 14:09:56;;;;;;;0.10;0.10;;;;;;;;;;5026898;28;20532;-78
2024/01/29 14:12:22;;;;;;;0.10;0.10;;;;;;;;;;5024009;28;20053;-78
2024/01/29 14:14:49;;;;;;;0.32;0.30;;;;;;;;;;5026577;28;20637;-78
2024/01/29 14:17:15;;;;;;;0.10;0.10;;;;;;;;;;5021547;28;20050;-78
2024/01/29 14:19:42;;;;;;;0.63;0.63;;;;;;;;;;5025351;28;20065;-78
2024/01/29 14:22:09;;;;;;;0.30;0.30;;;;;;;;;;5018134;28;20397;-78
2024/01/29 14:24:37;;;;;;;0.10;0.10;;;;;;;;;;5026077;28;20062;-78
2024/01/29 14:27:03;;;;;;;0.38;0.38;;;;;;;;;;5025809;28;20054;-78
2024/01/29 14:29:30;;;;;;;0.30;0.30;;;;;;;;;;5027500;28;20825;-78
2024/01/29 14:31:56;;;;;;;0.20;0.20;;;;;;;;;;5010232;28;20050;-78
2024/01/29 14:34:23;;;;;;;0.10;0.10;;;;;;;;;;5025323;28;20061;-78
2024/01/29 14:36:50;;;;;;;0.17;0.17;;;;;;;;;;5023091;28;20061;-78
2024/01/29 14:39:18;;;;;;;0.10;0.10;;;;;;;;;;5025730;28;20057;-78
2024/01/29 14:41:49;;;;;;;0.10;0.10;;;;;;;;;;5018422;28;20173;-78
2024/01/29 14:44:15;;;;;;;0.10;0.10;;;;;;;;;;5025479;28;20064;-78
2024/01/29 14:46:42;;;;;;;0.30;0.30;;;;;;;;;;5026109;28;20053;-78